createdAt,value
2023-03-21T00:00:56.233Z,8.00
2023-03-21T00:03:26.305Z,8.00
2023-03-21T00:05:55.547Z,8.00
2023-03-21T00:08:26.449Z,8.00
2023-03-21T00:10:57.427Z,7.90
2023-03-21T00:13:28.342Z,7.90
2023-03-21T00:16:05.637Z,7.90
2023-03-21T00:18:46.507Z,7.90
2023-03-21T00:24:08.067Z,7.90
2023-03-21T00:26:38.273Z,7.80
2023-03-21T00:29:07.433Z,7.80
2023-03-21T00:31:36.657Z,7.80
2023-03-21T00:34:06.362Z,7.80
2023-03-21T00:36:35.757Z,7.70
2023-03-21T00:39:06.320Z,7.70
2023-03-21T00:41:42.573Z,7.70
2023-03-21T00:44:15.853Z,7.60
2023-03-21T00:47:00.826Z,7.60
2023-03-21T00:49:38.600Z,7.60
2023-03-21T00:52:20.158Z,7.60
2023-03-21T00:54:54.015Z,7.70
2023-03-21T00:57:37.487Z,7.70
2023-03-21T01:00:12.522Z,7.70
2023-03-21T01:03:14.092Z,7.80
2023-03-21T01:06:07.067Z,7.80
2023-03-21T01:08:54.815Z,7.80
2023-03-21T01:11:26.670Z,7.80
2023-03-21T01:14:07.304Z,7.80
2023-03-21T01:16:37.221Z,7.90
2023-03-21T01:19:14.942Z,7.90
2023-03-21T01:21:51.432Z,7.90
2023-03-21T01:24:20.521Z,7.90
2023-03-21T01:26:49.666Z,8.00
2023-03-21T01:29:18.900Z,8.00
2023-03-21T01:31:48.389Z,8.00
2023-03-21T01:34:17.575Z,7.90
2023-03-21T01:36:47.422Z,7.90
2023-03-21T01:39:21.730Z,7.90
2023-03-21T01:41:52.089Z,7.90
2023-03-21T01:44:27.085Z,7.90
2023-03-21T01:47:11.101Z,7.90
2023-03-21T01:50:06.256Z,7.90
2023-03-21T01:52:50.100Z,7.90
2023-03-21T01:55:26.902Z,7.90
2023-03-21T01:58:07.267Z,7.90
2023-03-21T02:00:51.350Z,7.90
2023-03-21T02:03:50.853Z,7.80
2023-03-21T02:07:07.521Z,7.80
2023-03-21T02:09:48.799Z,7.70
2023-03-21T02:12:21.860Z,7.70
2023-03-21T02:14:52.938Z,7.60
2023-03-21T02:17:53.148Z,7.60
2023-03-21T02:21:31.443Z,7.50
2023-03-21T02:24:27.287Z,7.50
2023-03-21T02:27:13.028Z,7.40
2023-03-21T02:29:46.479Z,7.40
2023-03-21T02:32:37.399Z,7.40
2023-03-21T02:35:41.487Z,7.40
2023-03-21T02:38:13.569Z,7.40
2023-03-21T02:40:49.925Z,7.40
2023-03-21T02:43:30.620Z,7.30
2023-03-21T02:46:16.956Z,7.30
2023-03-21T02:48:51.038Z,7.30
2023-03-21T02:51:23.681Z,7.20
2023-03-21T02:54:24.595Z,7.20
2023-03-21T02:56:51.395Z,7.20
2023-03-21T02:59:23.600Z,7.20
2023-03-21T03:01:54.907Z,7.20
2023-03-21T03:04:28.437Z,7.10
2023-03-21T03:07:31.568Z,7.10
2023-03-21T03:10:03.635Z,7.10
2023-03-21T03:12:52.123Z,7.00
2023-03-21T03:15:45.805Z,7.00
2023-03-21T03:18:29.187Z,7.00
2023-03-21T03:21:23.317Z,7.00
2023-03-21T03:24:16.892Z,7.00
2023-03-21T03:26:59.288Z,7.00
2023-03-21T03:29:32.678Z,7.00
2023-03-21T03:32:08.390Z,6.90
2023-03-21T03:34:44.410Z,6.80
2023-03-21T03:37:20.620Z,6.80
2023-03-21T03:39:57.597Z,6.80
2023-03-21T03:42:34.797Z,6.70
2023-03-21T03:45:13.597Z,6.60
2023-03-21T03:47:56.746Z,6.60
2023-03-21T03:50:43.353Z,6.50
2023-03-21T03:53:22.326Z,6.50
2023-03-21T03:55:55.880Z,6.50
2023-03-21T03:58:36.040Z,6.50
2023-03-21T04:01:08.922Z,6.50
2023-03-21T04:03:48.889Z,6.50
2023-03-21T04:06:20.129Z,6.60
2023-03-21T04:08:51.476Z,6.60
2023-03-21T04:11:21.000Z,6.70
2023-03-21T04:13:54.028Z,6.60
2023-03-21T04:16:25.988Z,6.60
2023-03-21T04:18:55.326Z,6.60
2023-03-21T04:21:27.569Z,6.60
2023-03-21T04:23:56.657Z,6.60
2023-03-21T04:26:25.917Z,6.50
2023-03-21T04:29:14.989Z,6.50
2023-03-21T04:32:02.430Z,6.40
2023-03-21T04:34:31.578Z,6.40
2023-03-21T04:37:11.126Z,6.40
2023-03-21T04:39:43.073Z,6.40
2023-03-21T04:42:14.456Z,6.50
2023-03-21T04:44:43.618Z,6.40
2023-03-21T04:47:13.370Z,6.40
2023-03-21T04:49:43.385Z,6.40
2023-03-21T04:52:15.029Z,6.40
2023-03-21T04:54:44.277Z,6.40
2023-03-21T04:57:13.881Z,6.40
2023-03-21T04:59:44.256Z,6.50
2023-03-21T05:02:13.740Z,6.50
2023-03-21T05:04:42.876Z,6.50
2023-03-21T05:07:12.013Z,6.50
2023-03-21T05:09:43.151Z,6.40
2023-03-21T05:12:12.376Z,6.40
2023-03-21T05:14:41.929Z,6.40
2023-03-21T05:17:15.475Z,6.40
2023-03-21T05:19:45.314Z,6.50
2023-03-21T05:22:19.326Z,6.50
2023-03-21T05:24:50.305Z,6.50
2023-03-21T05:27:36.537Z,6.50
2023-03-21T05:30:16.507Z,6.60
2023-03-21T05:34:50.057Z,6.60
2023-03-21T05:37:27.159Z,6.70
2023-03-21T05:39:57.564Z,6.80
2023-03-21T05:42:33.657Z,6.90
2023-03-21T05:45:07.775Z,7.00
2023-03-21T05:47:37.782Z,7.00
2023-03-21T05:50:07.577Z,7.10
2023-03-21T05:52:37.371Z,7.20
2023-03-21T05:55:13.711Z,7.30
2023-03-21T05:57:42.931Z,7.40
2023-03-21T06:00:27.637Z,7.60
2023-03-21T06:03:26.581Z,7.70
2023-03-21T06:06:12.986Z,7.80
2023-03-21T06:08:49.763Z,8.00
2023-03-21T06:11:28.449Z,8.10
2023-03-21T06:14:24.657Z,8.20
2023-03-21T06:17:11.583Z,8.30
2023-03-21T06:19:47.572Z,8.30
2023-03-21T06:22:39.688Z,8.30
2023-03-21T06:25:09.421Z,8.20
2023-03-21T06:27:38.856Z,8.20
2023-03-21T06:30:10.363Z,8.10
2023-03-21T06:32:48.025Z,8.00
2023-03-21T06:35:19.787Z,8.10
2023-03-21T06:37:49.504Z,8.10
2023-03-21T06:40:19.790Z,8.10
2023-03-21T06:42:48.938Z,8.20
2023-03-21T06:45:19.685Z,8.20
2023-03-21T06:47:48.804Z,8.30
2023-03-21T06:50:30.216Z,8.40
2023-03-21T06:52:59.504Z,8.50
2023-03-21T06:55:31.477Z,8.60
2023-03-21T06:58:02.224Z,8.80
2023-03-21T07:00:31.697Z,9.00
2023-03-21T07:03:01.969Z,9.20
2023-03-21T07:05:31.633Z,9.30
2023-03-21T07:08:01.392Z,9.40
2023-03-21T07:10:32.717Z,9.50
2023-03-21T07:13:08.233Z,9.60
2023-03-21T07:15:42.821Z,9.60
2023-03-21T07:18:12.051Z,9.80
2023-03-21T07:20:41.183Z,9.90
2023-03-21T07:23:10.280Z,10.00
2023-03-21T07:25:39.905Z,10.10
2023-03-21T07:28:09.309Z,10.00
2023-03-21T07:30:38.504Z,10.10
2023-03-21T07:33:07.918Z,10.10
2023-03-21T07:35:37.804Z,10.10
2023-03-21T07:38:08.857Z,10.20
2023-03-21T07:40:38.658Z,10.20
2023-03-21T07:43:08.066Z,10.20
2023-03-21T07:45:37.702Z,10.30
2023-03-21T07:48:14.119Z,10.40
2023-03-21T07:50:43.431Z,10.40
2023-03-21T07:53:12.572Z,10.70
2023-03-21T07:55:41.674Z,11.10
2023-03-21T07:58:11.202Z,11.50
2023-03-21T08:00:40.306Z,11.80
2023-03-21T08:03:09.865Z,12.10
2023-03-21T08:05:39.519Z,12.30
2023-03-21T08:08:08.827Z,12.40
2023-03-21T08:10:38.094Z,12.50
2023-03-21T08:13:07.194Z,12.50
2023-03-21T08:15:37.625Z,12.40
2023-03-21T08:18:06.986Z,12.40
2023-03-21T08:20:36.234Z,12.60
2023-03-21T08:23:05.322Z,12.60
2023-03-21T08:25:34.460Z,12.60
2023-03-21T08:28:03.701Z,12.80
2023-03-21T08:30:32.951Z,12.70
2023-03-21T08:33:02.174Z,12.60
2023-03-21T08:35:31.713Z,12.70
2023-03-21T08:38:05.794Z,13.10
2023-03-21T08:40:35.454Z,13.50
2023-03-21T08:43:04.615Z,13.70
2023-03-21T08:45:33.874Z,13.70
2023-03-21T08:48:03.078Z,13.70
2023-03-21T08:50:32.291Z,13.90
2023-03-21T08:53:01.475Z,14.30
2023-03-21T08:55:33.218Z,14.40
2023-03-21T08:58:02.395Z,14.40
2023-03-21T09:00:31.474Z,14.50
2023-03-21T09:03:01.495Z,14.60
2023-03-21T09:05:31.008Z,15.00
2023-03-21T09:08:01.698Z,15.40
2023-03-21T09:10:31.040Z,15.90
2023-03-21T09:13:00.157Z,16.30
2023-03-21T09:15:29.876Z,16.90
2023-03-21T09:18:13.133Z,17.20
2023-03-21T09:20:43.887Z,17.40
2023-03-21T09:23:14.220Z,17.30
2023-03-21T09:25:45.613Z,17.30
2023-03-21T09:28:14.884Z,17.10
2023-03-21T09:30:44.694Z,17.10
2023-03-21T09:33:21.212Z,17.40
2023-03-21T09:35:52.114Z,17.40
2023-03-21T09:38:22.542Z,17.40
2023-03-21T09:41:09.998Z,17.40
2023-03-21T09:43:50.221Z,17.50
2023-03-21T09:46:42.814Z,17.80
2023-03-21T09:49:18.879Z,17.90
2023-03-21T09:51:51.813Z,18.10
2023-03-21T09:54:27.453Z,18.10
2023-03-21T09:57:03.903Z,18.30
2023-03-21T09:59:40.354Z,18.60
2023-03-21T10:02:36.772Z,19.00
2023-03-21T10:05:32.824Z,19.30
2023-03-21T10:08:24.477Z,19.20
2023-03-21T10:10:57.015Z,19.20
2023-03-21T10:13:29.295Z,18.90
2023-03-21T10:16:01.346Z,18.60
2023-03-21T10:18:31.391Z,18.30
2023-03-21T10:21:01.991Z,17.90
2023-03-21T10:23:31.400Z,17.70
2023-03-21T10:26:03.789Z,17.40
2023-03-21T10:28:52.108Z,17.30
2023-03-21T10:31:26.189Z,17.20
2023-03-21T10:33:59.349Z,17.20
2023-03-21T10:36:31.626Z,17.10
2023-03-21T10:39:05.134Z,17.00
2023-03-21T10:41:35.076Z,17.10
2023-03-21T10:44:16.878Z,17.30
2023-03-21T10:47:04.806Z,17.50
2023-03-21T10:49:56.361Z,17.70
2023-03-21T10:52:28.735Z,17.90
2023-03-21T10:55:17.703Z,18.00
2023-03-21T10:57:47.442Z,17.80
2023-03-21T11:00:27.362Z,17.50
2023-03-21T11:02:57.617Z,17.30
2023-03-21T11:05:39.920Z,17.30
2023-03-21T11:08:18.731Z,17.10
2023-03-21T11:11:01.525Z,17.00
2023-03-21T11:13:38.620Z,17.00
2023-03-21T11:16:11.235Z,17.00
2023-03-21T11:18:45.550Z,17.00
2023-03-21T11:21:15.701Z,17.10
2023-03-21T11:23:48.209Z,17.20
2023-03-21T11:26:24.674Z,17.40
2023-03-21T11:28:55.300Z,17.60
2023-03-21T11:31:38.888Z,17.80
2023-03-21T11:34:09.812Z,17.90
2023-03-21T11:36:39.285Z,17.90
2023-03-21T11:39:11.570Z,18.20
2023-03-21T11:41:42.542Z,18.50
2023-03-21T11:44:41.423Z,18.80
2023-03-21T11:47:11.383Z,19.00
2023-03-21T11:49:40.545Z,19.20
2023-03-21T11:52:43.532Z,19.10
2023-03-21T11:55:38.330Z,18.80
2023-03-21T11:58:28.973Z,18.50
2023-03-21T12:01:24.032Z,18.30
2023-03-21T12:04:02.331Z,18.10
2023-03-21T12:07:16.315Z,18.00
2023-03-21T12:09:55.999Z,17.90
2023-03-21T12:12:55.378Z,17.60
2023-03-21T12:15:26.666Z,17.50
2023-03-21T12:17:58.483Z,17.50
2023-03-21T12:20:37.995Z,17.60
2023-03-21T12:23:31.310Z,17.60
2023-03-21T12:26:03.373Z,17.60
2023-03-21T12:29:10.719Z,17.40
2023-03-21T12:31:58.175Z,17.30
2023-03-21T12:34:31.075Z,17.20
2023-03-21T12:37:37.350Z,17.20
2023-03-21T12:40:36.101Z,17.30
2023-03-21T12:43:37.619Z,17.40
2023-03-21T12:46:36.558Z,17.50
2023-03-21T12:49:14.035Z,17.40
2023-03-21T12:51:54.232Z,17.20
2023-03-21T12:54:39.702Z,17.20
2023-03-21T12:57:14.852Z,17.10
2023-03-21T13:00:01.600Z,17.10
2023-03-21T13:02:42.159Z,17.10
2023-03-21T13:05:29.162Z,17.30
2023-03-21T13:08:04.419Z,17.70
2023-03-21T13:10:34.376Z,18.20
2023-03-21T13:13:17.626Z,18.90
2023-03-21T13:15:50.858Z,19.40
2023-03-21T13:18:22.922Z,20.10
2023-03-21T13:20:55.925Z,20.50
2023-03-21T13:23:33.132Z,20.70
2023-03-21T13:26:02.483Z,20.80
2023-03-21T13:28:34.790Z,21.20
2023-03-21T13:31:22.403Z,20.80
2023-03-21T13:33:54.300Z,20.30
2023-03-21T13:36:29.478Z,19.80
2023-03-21T13:39:05.698Z,19.50
2023-03-21T13:41:38.916Z,19.50
2023-03-21T13:44:40.918Z,19.20
2023-03-21T13:47:31.800Z,20.20
2023-03-21T13:50:21.624Z,27.40
2023-03-21T13:53:14.841Z,30.70
2023-03-21T13:55:46.569Z,30.90
2023-03-21T13:58:34.199Z,28.10
2023-03-21T14:01:12.825Z,25.80
2023-03-21T14:03:42.519Z,26.70
2023-03-21T14:06:12.100Z,25.30
2023-03-21T14:08:46.634Z,24.10
2023-03-21T14:11:19.878Z,23.30
2023-03-21T14:13:51.609Z,22.60
2023-03-21T14:16:25.388Z,22.10
2023-03-21T14:18:57.284Z,21.90
2023-03-21T14:21:29.771Z,22.00
2023-03-21T14:24:03.314Z,22.20
2023-03-21T14:26:40.691Z,22.40
2023-03-21T14:29:26.166Z,22.50
2023-03-21T14:31:57.360Z,22.40
2023-03-21T14:34:28.632Z,21.80
2023-03-21T14:36:59.156Z,21.30
2023-03-21T14:39:31.532Z,20.60
2023-03-21T14:42:06.818Z,20.50
2023-03-21T14:44:54.870Z,20.50
2023-03-21T14:47:32.115Z,20.30
2023-03-21T14:50:01.426Z,19.60
2023-03-21T14:52:33.601Z,19.00
2023-03-21T14:55:11.387Z,18.60
2023-03-21T14:57:42.032Z,18.40
2023-03-21T15:00:27.516Z,18.20
2023-03-21T15:02:59.376Z,17.90
2023-03-21T15:05:33.864Z,17.60
2023-03-21T15:08:27.301Z,17.40
2023-03-21T15:11:06.941Z,17.20
2023-03-21T15:13:54.493Z,17.10
2023-03-21T15:16:23.830Z,17.00
2023-03-21T15:18:53.304Z,16.90
2023-03-21T15:21:30.334Z,16.80
2023-03-21T15:24:08.558Z,16.70
2023-03-21T15:26:37.706Z,16.70
2023-03-21T15:29:07.592Z,16.60
2023-03-21T15:31:40.342Z,16.70
2023-03-21T15:34:24.675Z,16.70
2023-03-21T15:37:01.857Z,16.80
2023-03-21T15:39:31.573Z,17.00
2023-03-21T15:42:02.380Z,17.10
2023-03-21T15:44:33.498Z,17.20
2023-03-21T15:47:02.800Z,17.10
2023-03-21T15:49:40.251Z,17.10
2023-03-21T15:52:16.892Z,17.10
2023-03-21T15:54:50.267Z,17.10
2023-03-21T15:57:24.960Z,17.20
2023-03-21T15:59:56.695Z,17.30
2023-03-21T16:02:30.902Z,17.30
2023-03-21T16:05:15.685Z,17.30
2023-03-21T16:07:48.764Z,17.30
2023-03-21T16:10:38.424Z,17.20
2023-03-21T16:13:12.225Z,17.10
2023-03-21T16:15:41.369Z,17.00
2023-03-21T16:18:16.068Z,16.80
2023-03-21T16:20:46.492Z,16.70
2023-03-21T16:23:16.199Z,16.40
2023-03-21T16:25:45.921Z,16.20
2023-03-21T16:28:16.920Z,16.00
2023-03-21T16:30:46.009Z,15.70
2023-03-21T16:33:15.107Z,15.50
2023-03-21T16:35:44.377Z,15.30
2023-03-21T16:38:14.029Z,15.10
2023-03-21T16:40:44.148Z,15.00
2023-03-21T16:43:13.239Z,14.90
2023-03-21T16:45:42.455Z,14.70
2023-03-21T16:48:16.566Z,14.60
2023-03-21T16:50:48.177Z,14.50
2023-03-21T16:53:17.541Z,14.30
2023-03-21T16:55:46.693Z,14.20
2023-03-21T16:58:16.574Z,14.10
2023-03-21T17:00:45.677Z,13.90
2023-03-21T17:03:19.130Z,13.70
2023-03-21T17:05:48.611Z,13.50
2023-03-21T17:08:19.914Z,13.40
2023-03-21T17:10:49.071Z,13.30
2023-03-21T17:13:18.190Z,13.30
2023-03-21T17:15:47.284Z,13.10
2023-03-21T17:18:16.423Z,12.90
2023-03-21T17:20:46.053Z,12.60
2023-03-21T17:23:15.303Z,12.50
2023-03-21T17:25:44.429Z,12.30
2023-03-21T17:28:13.661Z,12.20
2023-03-21T17:30:43.351Z,12.10
2023-03-21T17:33:12.868Z,12.00
2023-03-21T17:35:41.995Z,12.00
2023-03-21T17:38:16.864Z,11.90
2023-03-21T17:40:45.965Z,11.80
2023-03-21T17:43:20.981Z,11.70
2023-03-21T17:45:50.274Z,11.60
2023-03-21T17:48:19.490Z,11.50
2023-03-21T17:50:48.690Z,11.40
2023-03-21T17:53:17.822Z,11.40
2023-03-21T17:55:46.930Z,11.30
2023-03-21T17:58:17.809Z,11.30
2023-03-21T18:00:46.980Z,11.20
2023-03-21T18:03:18.381Z,11.10
2023-03-21T18:05:47.753Z,11.00
2023-03-21T18:08:16.913Z,10.90
2023-03-21T18:10:46.191Z,10.80
2023-03-21T18:13:15.387Z,10.70
2023-03-21T18:15:45.105Z,10.70
2023-03-21T18:18:14.602Z,10.60
2023-03-21T18:20:53.643Z,10.60
2023-03-21T18:23:23.068Z,10.50
2023-03-21T18:25:52.781Z,10.50
2023-03-21T18:28:22.643Z,10.60
2023-03-21T18:31:08.604Z,10.70
2023-03-21T18:33:40.983Z,10.70
2023-03-21T18:36:14.132Z,10.80
2023-03-21T18:38:43.660Z,10.80
2023-03-21T18:41:15.168Z,10.80
2023-03-21T18:44:02.295Z,10.70
2023-03-21T18:46:34.102Z,10.60
2023-03-21T18:49:33.947Z,10.40
2023-03-21T18:51:52.649Z,10.20
2023-03-21T18:54:23.572Z,10.00
2023-03-21T18:59:42.323Z,9.70
2023-03-21T19:02:13.870Z,9.60
2023-03-21T19:04:43.581Z,9.60
2023-03-21T19:07:12.718Z,9.50
2023-03-21T19:12:31.325Z,9.30
2023-03-21T19:15:00.446Z,9.20
2023-03-21T19:20:19.071Z,9.10
2023-03-21T19:22:48.227Z,9.10
2023-03-21T19:25:17.891Z,9.00
2023-03-21T19:27:46.978Z,8.90
2023-03-21T19:30:16.598Z,8.90
2023-03-21T19:32:46.044Z,8.80
2023-03-21T19:35:15.170Z,8.70
2023-03-21T19:37:44.330Z,8.60
2023-03-21T19:40:14.462Z,8.40
2023-03-21T19:42:43.592Z,8.30
2023-03-21T19:45:12.807Z,8.30
2023-03-21T19:47:41.980Z,8.20
2023-03-21T19:53:00.628Z,8.10
2023-03-21T19:55:29.738Z,8.10
2023-03-21T19:57:58.903Z,8.00
2023-03-21T20:00:28.047Z,8.00
2023-03-21T20:02:57.340Z,8.00
2023-03-21T20:05:27.697Z,8.00
2023-03-21T20:07:59.732Z,7.90
2023-03-21T20:10:29.897Z,7.80
2023-03-21T20:12:58.993Z,7.70
2023-03-21T20:15:29.939Z,7.70
2023-03-21T20:17:59.830Z,7.60
2023-03-21T20:20:29.445Z,7.40
2023-03-21T20:23:06.689Z,7.40
2023-03-21T20:25:45.642Z,7.30
2023-03-21T20:28:24.269Z,7.30
2023-03-21T20:31:00.444Z,7.20
2023-03-21T20:33:29.939Z,7.20
2023-03-21T20:38:55.476Z,6.80
2023-03-21T20:41:24.555Z,6.60
2023-03-21T20:46:47.646Z,6.40
2023-03-21T20:49:16.842Z,6.40
2023-03-21T20:52:44.576Z,6.40
2023-03-21T20:54:35.256Z,6.40
2023-03-21T20:57:05.092Z,6.50
2023-03-21T20:59:35.320Z,6.40
2023-03-21T21:02:05.341Z,6.40
2023-03-21T21:04:49.729Z,6.40
2023-03-21T21:07:22.783Z,6.30
2023-03-21T21:09:51.905Z,6.20
2023-03-21T21:12:27.383Z,6.20
2023-03-21T21:14:56.747Z,6.20
2023-03-21T21:17:54.112Z,6.20
2023-03-21T21:20:16.931Z,6.10
2023-03-21T21:23:00.323Z,6.10
2023-03-21T21:25:33.374Z,6.10
2023-03-21T21:28:03.306Z,6.10
2023-03-21T21:30:34.098Z,6.10
2023-03-21T21:33:03.473Z,6.00
2023-03-21T21:35:33.686Z,5.90
2023-03-21T21:38:02.847Z,5.80
2023-03-21T21:40:32.077Z,5.70
2023-03-21T21:43:03.619Z,5.60
2023-03-21T21:45:32.838Z,5.50
2023-03-21T21:48:02.196Z,5.50
2023-03-21T21:50:31.522Z,5.50
2023-03-21T21:53:03.906Z,5.50
2023-03-21T21:55:34.205Z,5.50
2023-03-21T21:58:04.036Z,5.40
2023-03-21T22:00:33.291Z,5.40
2023-03-21T22:03:02.535Z,5.30
2023-03-21T22:05:31.882Z,5.30
2023-03-21T22:08:01.067Z,5.30
2023-03-21T22:10:32.092Z,5.20
2023-03-21T22:13:01.334Z,5.20
2023-03-21T22:15:30.528Z,5.10
2023-03-21T22:17:59.689Z,5.10
2023-03-21T22:20:28.786Z,5.10
2023-03-21T22:22:59.645Z,5.00
2023-03-21T22:25:28.888Z,5.00
2023-03-21T22:27:58.497Z,5.00
2023-03-21T22:30:27.654Z,4.90
2023-03-21T22:33:08.896Z,4.90
2023-03-21T22:35:38.753Z,4.90
2023-03-21T22:38:07.892Z,4.80
2023-03-21T22:40:37.359Z,4.80
2023-03-21T22:43:08.362Z,4.70
2023-03-21T22:45:37.574Z,4.70
2023-03-21T22:48:06.722Z,4.60
2023-03-21T22:50:36.107Z,4.60
2023-03-21T22:53:05.274Z,4.60
2023-03-21T22:55:34.474Z,4.50
2023-03-21T22:58:03.675Z,4.40
2023-03-21T23:00:33.597Z,4.40
2023-03-21T23:03:02.692Z,4.40
2023-03-21T23:05:32.093Z,4.40
2023-03-21T23:08:01.381Z,4.40
2023-03-21T23:10:30.480Z,4.40
2023-03-21T23:12:59.587Z,4.30
2023-03-21T23:15:28.686Z,4.30
2023-03-21T23:17:57.718Z,4.30
2023-03-21T23:20:26.928Z,4.30
2023-03-21T23:22:56.194Z,4.30
2023-03-21T23:25:25.324Z,4.30
2023-03-21T23:27:55.225Z,4.20
2023-03-21T23:30:24.590Z,4.20
2023-03-21T23:32:53.676Z,4.20
2023-03-21T23:35:22.822Z,4.10
2023-03-21T23:37:52.615Z,4.00
2023-03-21T23:40:22.007Z,4.10
2023-03-21T23:42:51.649Z,4.00
2023-03-21T23:45:20.841Z,4.00
2023-03-21T23:47:49.982Z,4.00
2023-03-21T23:50:19.126Z,3.90
2023-03-21T23:52:48.268Z,3.90
2023-03-21T23:55:17.420Z,3.90
2023-03-21T23:57:46.489Z,3.80
